createdAt,value
2022-11-30T00:01:44.525Z,101976.41
2022-11-30T00:04:17.427Z,101976.06
2022-11-30T00:06:50.482Z,101981.44
2022-11-30T00:09:25.548Z,101980.59
2022-11-30T00:11:58.547Z,101981.59
2022-11-30T00:14:31.919Z,101976.34
2022-11-30T00:17:04.992Z,101976.41
2022-11-30T00:19:38.019Z,101972.06
2022-11-30T00:22:10.894Z,101968.47
2022-11-30T00:24:44.052Z,101981.50
2022-11-30T00:27:16.998Z,101994.88
2022-11-30T00:29:49.697Z,101982.44
2022-11-30T00:32:22.552Z,101978.88
2022-11-30T00:34:55.355Z,101982.69
2022-11-30T00:37:28.321Z,101987.78
2022-11-30T00:40:01.552Z,101980.63
2022-11-30T00:42:34.517Z,101978.91
2022-11-30T00:45:08.496Z,101980.94
2022-11-30T00:47:41.795Z,101989.63
2022-11-30T00:50:15.042Z,101983.44
2022-11-30T00:52:47.939Z,101990.31
2022-11-30T00:55:20.835Z,101986.81
2022-11-30T00:57:54.434Z,101995.59
2022-11-30T01:00:28.345Z,101988.44
2022-11-30T01:03:01.522Z,101988.53
2022-11-30T01:05:35.364Z,101995.63
2022-11-30T01:08:11.364Z,101999.16
2022-11-30T01:10:45.141Z,102004.56
2022-11-30T01:13:18.078Z,101999.22
2022-11-30T01:15:51.253Z,102000.13
2022-11-30T01:18:24.688Z,101995.59
2022-11-30T01:20:57.692Z,101999.31
2022-11-30T01:23:30.543Z,102000.16
2022-11-30T01:26:04.032Z,101995.81
2022-11-30T01:28:37.332Z,101995.97
2022-11-30T01:31:14.344Z,101997.69
2022-11-30T01:33:55.474Z,102001.13
2022-11-30T01:36:28.162Z,102001.03
2022-11-30T01:39:00.783Z,101996.56
2022-11-30T01:41:33.595Z,101996.50
2022-11-30T01:44:06.194Z,101990.59
2022-11-30T01:46:55.144Z,101995.91
2022-11-30T01:49:38.228Z,101995.72
2022-11-30T01:52:17.382Z,102002.97
2022-11-30T01:55:14.580Z,101998.50
2022-11-30T01:58:24.104Z,102006.41
2022-11-30T02:00:57.123Z,102015.91
2022-11-30T02:04:24.140Z,102017.00
2022-11-30T02:07:03.397Z,102017.94
2022-11-30T02:09:44.922Z,102023.06
2022-11-30T02:13:10.634Z,102013.41
2022-11-30T02:16:10.733Z,102011.38
2022-11-30T02:19:11.701Z,102013.22
2022-11-30T02:22:22.397Z,102012.97
2022-11-30T02:25:14.074Z,102016.75
2022-11-30T02:28:18.912Z,102016.59
2022-11-30T02:30:54.626Z,102014.44
2022-11-30T02:33:33.030Z,102018.91
2022-11-30T02:36:09.899Z,102014.50
2022-11-30T02:38:43.165Z,102013.75
2022-11-30T02:41:16.011Z,102013.78
2022-11-30T02:43:49.348Z,102016.38
2022-11-30T02:46:54.494Z,102019.06
2022-11-30T02:49:42.388Z,102019.00
2022-11-30T02:52:19.435Z,102019.94
2022-11-30T02:54:58.593Z,102031.31
2022-11-30T02:57:31.279Z,102023.47
2022-11-30T03:00:10.189Z,102029.63
2022-11-30T03:02:43.180Z,102027.69
2022-11-30T03:05:16.119Z,102026.88
2022-11-30T03:07:48.918Z,102034.00
2022-11-30T03:10:21.982Z,102025.22
2022-11-30T03:12:59.570Z,102024.25
2022-11-30T03:15:32.383Z,102032.22
2022-11-30T03:18:06.546Z,102028.72
2022-11-30T03:20:43.257Z,102026.81
2022-11-30T03:23:16.154Z,102027.56
2022-11-30T03:25:48.968Z,102029.44
2022-11-30T03:28:21.974Z,102030.41
2022-11-30T03:30:55.065Z,102032.03
2022-11-30T03:33:27.798Z,102036.47
2022-11-30T03:36:07.700Z,102029.38
2022-11-30T03:38:40.753Z,102034.38
2022-11-30T03:41:16.971Z,102019.69
2022-11-30T03:43:49.815Z,102027.59
2022-11-30T03:46:23.035Z,102032.00
2022-11-30T03:48:55.763Z,102035.53
2022-11-30T03:51:28.816Z,102018.75
2022-11-30T03:54:02.168Z,102028.38
2022-11-30T03:56:34.883Z,102036.00
2022-11-30T03:59:07.767Z,102039.50
2022-11-30T04:01:41.235Z,102039.72
2022-11-30T04:04:14.487Z,102043.28
2022-11-30T04:06:47.428Z,102033.72
2022-11-30T04:09:20.481Z,102043.44
2022-11-30T04:11:53.456Z,102039.06
2022-11-30T04:14:26.352Z,102029.38
2022-11-30T04:16:59.454Z,102040.84
2022-11-30T04:19:32.210Z,102029.41
2022-11-30T04:22:07.983Z,102032.88
2022-11-30T04:24:41.035Z,102033.66
2022-11-30T04:27:16.579Z,102039.53
2022-11-30T04:29:49.954Z,102042.34
2022-11-30T04:32:23.128Z,102048.34
2022-11-30T04:34:55.962Z,102043.03
2022-11-30T04:37:28.807Z,102044.75
2022-11-30T04:40:02.988Z,102038.47
2022-11-30T04:42:35.866Z,102042.91
2022-11-30T04:45:10.257Z,102035.78
2022-11-30T04:47:43.332Z,102044.56
2022-11-30T04:50:17.431Z,102044.72
2022-11-30T04:52:50.545Z,102051.75
2022-11-30T04:55:24.619Z,102051.75
2022-11-30T04:57:57.505Z,102052.53
2022-11-30T05:00:31.081Z,102053.41
2022-11-30T05:03:04.296Z,102044.63
2022-11-30T05:05:37.394Z,102050.66
2022-11-30T05:08:10.364Z,102051.06
2022-11-30T05:10:43.098Z,102048.91
2022-11-30T05:13:16.011Z,102045.34
2022-11-30T05:15:48.983Z,102052.50
2022-11-30T05:18:25.152Z,102054.94
2022-11-30T05:20:58.246Z,102049.00
2022-11-30T05:23:31.024Z,102059.41
2022-11-30T05:26:04.639Z,102057.78
2022-11-30T05:28:37.509Z,102057.69
2022-11-30T05:31:10.401Z,102058.38
2022-11-30T05:33:44.451Z,102059.97
2022-11-30T05:36:17.409Z,102057.72
2022-11-30T05:38:50.569Z,102057.72
2022-11-30T05:41:23.645Z,102053.31
2022-11-30T05:43:57.125Z,102063.03
2022-11-30T05:46:30.318Z,102068.31
2022-11-30T05:49:03.332Z,102070.09
2022-11-30T05:51:36.634Z,102069.06
2022-11-30T05:54:10.050Z,102071.75
2022-11-30T05:56:43.239Z,102080.94
2022-11-30T05:59:16.018Z,102084.38
2022-11-30T06:01:49.519Z,102085.59
2022-11-30T06:04:22.706Z,102081.31
2022-11-30T06:06:55.988Z,102083.22
2022-11-30T06:09:29.575Z,102080.59
2022-11-30T06:12:02.373Z,102085.88
2022-11-30T06:14:35.115Z,102096.25
2022-11-30T06:17:07.775Z,102090.13
2022-11-30T06:19:40.509Z,102084.03
2022-11-30T06:22:13.446Z,102094.63
2022-11-30T06:24:46.453Z,102090.28
2022-11-30T06:27:19.373Z,102093.72
2022-11-30T06:29:52.312Z,102092.66
2022-11-30T06:32:27.576Z,102092.81
2022-11-30T06:35:00.424Z,102094.31
2022-11-30T06:37:35.983Z,102091.84
2022-11-30T06:40:11.789Z,102087.56
2022-11-30T06:42:44.692Z,102098.19
2022-11-30T06:45:17.691Z,102093.84
2022-11-30T06:47:50.666Z,102088.56
2022-11-30T06:50:24.302Z,102089.13
2022-11-30T06:52:59.192Z,102093.56
2022-11-30T06:55:35.481Z,102104.59
2022-11-30T06:58:10.430Z,102108.47
2022-11-30T07:00:46.347Z,102111.88
2022-11-30T07:03:19.019Z,102104.09
2022-11-30T07:05:52.022Z,102110.47
2022-11-30T07:08:24.799Z,102112.25
2022-11-30T07:11:00.551Z,102111.19
2022-11-30T07:13:33.951Z,102111.91
2022-11-30T07:16:11.277Z,102121.88
2022-11-30T07:18:44.063Z,102113.94
2022-11-30T07:21:17.301Z,102107.75
2022-11-30T07:24:08.815Z,102117.41
2022-11-30T07:26:41.994Z,102130.78
2022-11-30T07:29:15.177Z,102129.06
2022-11-30T07:31:52.450Z,102131.31
2022-11-30T07:34:25.563Z,102136.56
2022-11-30T07:36:58.586Z,102142.00
2022-11-30T07:39:31.558Z,102138.50
2022-11-30T07:42:04.323Z,102137.53
2022-11-30T07:44:36.923Z,102148.84
2022-11-30T07:47:09.865Z,102142.09
2022-11-30T07:49:42.678Z,102149.91
2022-11-30T07:52:15.547Z,102148.19
2022-11-30T07:54:48.597Z,102149.28
2022-11-30T07:57:21.279Z,102151.81
2022-11-30T07:59:53.926Z,102159.47
2022-11-30T08:02:26.656Z,102148.78
2022-11-30T08:04:59.634Z,102160.03
2022-11-30T08:07:32.390Z,102159.63
2022-11-30T08:10:06.944Z,102162.16
2022-11-30T08:12:39.654Z,102162.22
2022-11-30T08:15:19.922Z,102161.34
2022-11-30T08:17:55.316Z,102158.13
2022-11-30T08:20:27.953Z,102162.34
2022-11-30T08:23:00.703Z,102164.19
2022-11-30T08:25:35.747Z,102175.72
2022-11-30T08:28:08.550Z,102168.44
2022-11-30T08:30:41.236Z,102180.72
2022-11-30T08:33:14.511Z,102174.53
2022-11-30T08:35:47.161Z,102184.06
2022-11-30T08:38:19.832Z,102182.44
2022-11-30T08:40:58.629Z,102182.47
2022-11-30T08:43:32.400Z,102189.47
2022-11-30T08:46:34.616Z,102182.38
2022-11-30T08:54:49.848Z,102197.56
2022-11-30T08:57:23.184Z,102196.72
2022-11-30T08:59:56.003Z,102199.09
2022-11-30T09:02:28.767Z,102198.44
2022-11-30T09:05:01.669Z,102197.63
2022-11-30T09:07:34.499Z,102194.78
2022-11-30T09:10:08.666Z,102202.75
2022-11-30T09:12:42.131Z,102203.56
2022-11-30T09:15:15.140Z,102207.44
2022-11-30T09:17:47.924Z,102208.34
2022-11-30T09:20:20.872Z,102203.41
2022-11-30T09:22:53.918Z,102215.13
2022-11-30T09:25:26.728Z,102208.38
2022-11-30T09:27:59.331Z,102211.22
2022-11-30T09:30:32.325Z,102211.19
2022-11-30T09:33:05.246Z,102215.63
2022-11-30T09:35:38.107Z,102218.44
2022-11-30T09:38:11.176Z,102227.00
2022-11-30T09:40:44.309Z,102218.47
2022-11-30T09:43:51.563Z,102216.50
2022-11-30T09:46:41.545Z,102222.38
2022-11-30T09:49:24.954Z,102224.00
2022-11-30T09:52:04.727Z,102211.59
2022-11-30T09:54:42.278Z,102215.59
2022-11-30T09:57:29.894Z,102221.72
2022-11-30T10:00:23.933Z,102226.44
2022-11-30T10:03:02.515Z,102222.25
2022-11-30T10:05:45.731Z,102217.34
2022-11-30T10:08:50.715Z,102218.44
2022-11-30T10:11:43.879Z,102212.34
2022-11-30T10:14:31.670Z,102208.63
2022-11-30T10:17:37.356Z,102219.25
2022-11-30T10:20:39.909Z,102207.69
2022-11-30T10:24:10.295Z,102215.81
2022-11-30T10:26:57.231Z,102210.31
2022-11-30T10:29:43.637Z,102204.94
2022-11-30T10:32:35.813Z,102208.72
2022-11-30T10:35:52.722Z,102212.25
2022-11-30T10:38:34.427Z,102204.66
2022-11-30T10:41:31.528Z,102197.88
2022-11-30T10:44:18.338Z,102200.44
2022-11-30T10:47:12.072Z,102202.00
2022-11-30T10:49:54.104Z,102195.13
2022-11-30T10:52:39.265Z,102191.22
2022-11-30T10:55:27.113Z,102183.34
2022-11-30T10:58:15.034Z,102185.28
2022-11-30T11:01:09.193Z,102191.34
2022-11-30T11:03:42.284Z,102186.22
2022-11-30T11:06:25.688Z,102175.91
2022-11-30T11:08:58.843Z,102177.75
2022-11-30T11:11:39.695Z,102190.00
2022-11-30T11:14:23.663Z,102187.31
2022-11-30T11:17:07.376Z,102183.03
2022-11-30T11:19:43.796Z,102183.78
2022-11-30T11:22:27.296Z,102189.19
2022-11-30T11:25:24.453Z,102171.59
2022-11-30T11:28:12.821Z,102190.88
2022-11-30T11:30:45.533Z,102178.56
2022-11-30T11:33:30.518Z,102178.47
2022-11-30T11:36:09.237Z,102176.66
2022-11-30T11:38:48.817Z,102172.28
2022-11-30T11:41:36.446Z,102172.88
2022-11-30T11:44:09.714Z,102175.63
2022-11-30T11:47:09.040Z,102173.13
2022-11-30T11:49:42.341Z,102167.78
2022-11-30T11:52:18.888Z,102167.03
2022-11-30T11:55:03.569Z,102178.41
2022-11-30T11:57:54.675Z,102180.22
2022-11-30T12:00:35.696Z,102176.66
2022-11-30T12:03:35.606Z,102175.72
2022-11-30T12:06:27.277Z,102180.06
2022-11-30T12:09:36.939Z,102178.16
2022-11-30T12:12:14.462Z,102176.25
2022-11-30T12:14:59.179Z,102178.97
2022-11-30T12:17:49.067Z,102184.09
2022-11-30T12:21:29.806Z,102175.22
2022-11-30T12:24:35.889Z,102174.28
2022-11-30T12:27:54.082Z,102178.06
2022-11-30T12:31:12.965Z,102183.03
2022-11-30T12:34:24.969Z,102177.97
2022-11-30T12:37:44.390Z,102178.97
2022-11-30T12:41:05.231Z,102185.13
2022-11-30T12:44:11.408Z,102194.56
2022-11-30T12:47:15.997Z,102180.63
2022-11-30T12:50:04.871Z,102179.81
2022-11-30T12:53:12.975Z,102185.38
2022-11-30T12:56:14.602Z,102191.44
2022-11-30T12:59:32.334Z,102190.56
2022-11-30T13:02:37.419Z,102195.78
2022-11-30T13:05:24.512Z,102187.75
2022-11-30T13:08:42.998Z,102196.41
2022-11-30T13:11:41.319Z,102195.41
2022-11-30T13:14:31.881Z,102195.41
2022-11-30T13:17:15.707Z,102201.53
2022-11-30T13:20:10.356Z,102206.84
2022-11-30T13:23:05.716Z,102205.22
2022-11-30T13:26:07.771Z,102200.81
2022-11-30T13:28:44.558Z,102198.97
2022-11-30T13:31:34.281Z,102196.56
2022-11-30T13:34:28.526Z,102197.41
2022-11-30T13:37:09.973Z,102206.22
2022-11-30T13:40:04.704Z,102205.25
2022-11-30T13:42:50.254Z,102206.22
2022-11-30T13:45:37.059Z,102198.34
2022-11-30T13:48:42.091Z,102198.44
2022-11-30T13:51:39.895Z,102199.47
2022-11-30T13:54:47.663Z,102195.00
2022-11-30T13:57:29.483Z,102196.56
2022-11-30T14:00:30.080Z,102208.94
2022-11-30T14:03:20.856Z,102205.25
2022-11-30T14:06:04.640Z,102204.47
2022-11-30T14:08:38.906Z,102214.00
2022-11-30T14:11:17.700Z,102216.03
2022-11-30T14:13:53.954Z,102216.81
2022-11-30T14:16:30.354Z,102216.72
2022-11-30T14:19:06.513Z,102222.06
2022-11-30T14:21:44.941Z,102215.84
2022-11-30T14:24:25.109Z,102219.63
2022-11-30T14:27:00.098Z,102227.13
2022-11-30T14:29:39.669Z,102235.97
2022-11-30T14:32:50.613Z,102233.00
2022-11-30T14:35:23.933Z,102227.31
2022-11-30T14:38:00.107Z,102234.13
2022-11-30T14:40:35.196Z,102235.31
2022-11-30T14:43:17.724Z,102244.94
2022-11-30T14:46:12.955Z,102243.81
2022-11-30T14:49:19.514Z,102242.19
2022-11-30T14:52:05.608Z,102244.41
2022-11-30T14:55:09.385Z,102241.97
2022-11-30T14:58:07.248Z,102241.16
2022-11-30T15:00:45.138Z,102243.63
2022-11-30T15:03:26.295Z,102250.66
2022-11-30T15:06:07.144Z,102246.34
2022-11-30T15:08:50.795Z,102242.56
2022-11-30T15:11:39.058Z,102245.31
2022-11-30T15:14:13.050Z,102247.00
2022-11-30T15:17:01.144Z,102242.81
2022-11-30T15:19:34.941Z,102239.13
2022-11-30T15:22:26.390Z,102236.63
2022-11-30T15:24:59.845Z,102245.13
2022-11-30T15:27:40.259Z,102245.91
2022-11-30T15:30:20.270Z,102240.34
2022-11-30T15:32:55.858Z,102250.06
2022-11-30T15:35:57.035Z,102246.22
2022-11-30T15:38:27.595Z,102238.31
2022-11-30T15:41:22.929Z,102241.72
2022-11-30T15:44:00.579Z,102240.28
2022-11-30T15:46:46.648Z,102244.16
2022-11-30T15:49:36.192Z,102241.25
2022-11-30T15:52:11.306Z,102244.81
2022-11-30T15:54:55.418Z,102245.63
2022-11-30T15:58:00.115Z,102245.50
2022-11-30T16:00:35.136Z,102250.38
2022-11-30T16:03:15.817Z,102249.28
2022-11-30T16:06:11.754Z,102256.38
2022-11-30T16:08:48.283Z,102253.00
2022-11-30T16:11:23.689Z,102249.50
2022-11-30T16:13:59.453Z,102253.88
2022-11-30T16:16:40.066Z,102257.66
2022-11-30T16:19:12.869Z,102255.16
2022-11-30T16:21:45.946Z,102267.47
2022-11-30T16:24:25.596Z,102260.50
2022-11-30T16:26:59.884Z,102266.84
2022-11-30T16:29:32.998Z,102264.94
2022-11-30T16:32:07.087Z,102272.13
2022-11-30T16:34:44.011Z,102278.34
2022-11-30T16:37:17.461Z,102270.63
2022-11-30T16:39:52.680Z,102272.22
2022-11-30T16:42:28.724Z,102277.59
2022-11-30T16:45:01.557Z,102281.25
2022-11-30T16:47:37.077Z,102286.16
2022-11-30T16:50:12.471Z,102278.88
2022-11-30T16:52:45.542Z,102288.06
2022-11-30T16:55:23.021Z,102288.94
2022-11-30T16:57:55.851Z,102294.44
2022-11-30T17:00:29.025Z,102292.25
2022-11-30T17:03:18.092Z,102284.22
2022-11-30T17:05:51.226Z,102292.56
2022-11-30T17:08:24.204Z,102302.03
2022-11-30T17:10:57.226Z,102300.41
2022-11-30T17:13:32.468Z,102307.53
2022-11-30T17:16:08.978Z,102311.97
2022-11-30T17:18:42.127Z,102306.38
2022-11-30T17:21:18.335Z,102306.50
2022-11-30T17:23:51.325Z,102311.72
2022-11-30T17:26:24.342Z,102314.41
2022-11-30T17:28:57.266Z,102311.38
2022-11-30T17:31:32.674Z,102308.16
2022-11-30T17:34:06.760Z,102307.13
2022-11-30T17:36:39.629Z,102314.75
2022-11-30T17:39:12.494Z,102306.25
2022-11-30T17:41:46.846Z,102320.41
2022-11-30T17:44:19.590Z,102314.25
2022-11-30T17:46:55.199Z,102314.50
2022-11-30T17:49:32.826Z,102319.16
2022-11-30T17:52:05.889Z,102316.69
2022-11-30T17:54:38.795Z,102313.75
2022-11-30T17:57:11.599Z,102307.09
2022-11-30T17:59:44.580Z,102315.72
2022-11-30T18:02:17.321Z,102306.41
2022-11-30T18:04:50.155Z,102310.97
2022-11-30T18:07:23.432Z,102315.34
2022-11-30T18:09:56.508Z,102314.84
2022-11-30T18:12:29.350Z,102323.69
2022-11-30T18:15:02.195Z,102324.53
2022-11-30T18:17:35.535Z,102327.16
2022-11-30T18:20:08.924Z,102320.25
2022-11-30T18:22:41.492Z,102326.59
2022-11-30T18:25:15.565Z,102333.66
2022-11-30T18:27:51.824Z,102328.38
2022-11-30T18:30:24.358Z,102332.50
2022-11-30T18:32:57.107Z,102330.94
2022-11-30T18:35:29.872Z,102340.63
2022-11-30T18:38:02.698Z,102340.97
2022-11-30T18:40:35.524Z,102353.63
2022-11-30T18:43:08.510Z,102361.25
2022-11-30T18:45:41.248Z,102352.59
2022-11-30T18:48:14.031Z,102356.03
2022-11-30T18:50:46.643Z,102351.88
2022-11-30T18:53:19.281Z,102363.28
2022-11-30T18:55:52.078Z,102359.88
2022-11-30T18:58:26.866Z,102353.88
2022-11-30T19:01:12.271Z,102356.44
2022-11-30T19:03:54.108Z,102362.28
2022-11-30T19:06:30.003Z,102358.09
2022-11-30T19:09:08.754Z,102362.28
2022-11-30T19:11:43.259Z,102360.56
2022-11-30T19:14:17.791Z,102359.69
2022-11-30T19:16:50.618Z,102365.56
2022-11-30T19:19:23.480Z,102356.03
2022-11-30T19:21:58.325Z,102359.13
2022-11-30T19:24:34.115Z,102359.31
2022-11-30T19:27:06.998Z,102356.38
2022-11-30T19:29:39.910Z,102358.81
2022-11-30T19:32:12.673Z,102360.25
2022-11-30T19:34:45.825Z,102355.84
2022-11-30T19:37:18.932Z,102358.22
2022-11-30T19:39:51.492Z,102359.00
2022-11-30T19:42:24.174Z,102372.88
2022-11-30T19:44:56.898Z,102362.47
2022-11-30T19:47:30.029Z,102369.28
2022-11-30T19:50:03.079Z,102366.81
2022-11-30T19:52:35.647Z,102370.38
2022-11-30T19:55:08.850Z,102371.13
2022-11-30T19:57:41.522Z,102378.69
2022-11-30T20:00:14.781Z,102379.09
2022-11-30T20:02:49.563Z,102378.59
2022-11-30T20:05:22.185Z,102380.16
2022-11-30T20:07:54.950Z,102386.00
2022-11-30T20:10:31.926Z,102384.56
2022-11-30T20:13:04.764Z,102382.03
2022-11-30T20:15:39.694Z,102381.22
2022-11-30T20:18:12.417Z,102388.16
2022-11-30T20:20:45.025Z,102390.66
2022-11-30T20:23:17.739Z,102392.66
2022-11-30T20:25:54.466Z,102396.81
2022-11-30T20:28:27.606Z,102397.59
2022-11-30T20:31:03.092Z,102399.56
2022-11-30T20:33:38.040Z,102380.47
2022-11-30T20:36:12.891Z,102386.22
2022-11-30T20:38:45.699Z,102391.59
2022-11-30T20:41:24.893Z,102388.03
2022-11-30T20:43:57.981Z,102402.19
2022-11-30T20:46:35.181Z,102391.53
2022-11-30T20:49:18.643Z,102401.91
2022-11-30T20:51:51.315Z,102393.94
2022-11-30T20:54:23.994Z,102386.84
2022-11-30T20:56:58.790Z,102396.66
2022-11-30T20:59:31.387Z,102398.56
2022-11-30T21:02:04.356Z,102397.50
2022-11-30T21:04:37.187Z,102395.53
2022-11-30T21:07:10.300Z,102399.00
2022-11-30T21:09:43.345Z,102402.84
2022-11-30T21:12:16.138Z,102407.41
2022-11-30T21:14:49.741Z,102408.13
2022-11-30T21:17:22.661Z,102409.53
2022-11-30T21:19:55.386Z,102405.84
2022-11-30T21:22:28.612Z,102410.16
2022-11-30T21:25:01.351Z,102408.59
2022-11-30T21:27:35.285Z,102402.69
2022-11-30T21:30:09.365Z,102410.41
2022-11-30T21:32:42.195Z,102409.88
2022-11-30T21:35:15.107Z,102398.94
2022-11-30T21:37:47.681Z,102402.84
2022-11-30T21:40:21.466Z,102398.25
2022-11-30T21:42:54.341Z,102402.00
2022-11-30T21:45:26.976Z,102398.31
2022-11-30T21:47:59.688Z,102400.59
2022-11-30T21:50:34.682Z,102407.69
2022-11-30T21:53:09.577Z,102406.75
2022-11-30T21:55:42.211Z,102411.19
2022-11-30T21:58:14.908Z,102405.63
2022-11-30T22:00:58.151Z,102401.84
2022-11-30T22:03:42.951Z,102398.38
2022-11-30T22:06:18.836Z,102403.97
2022-11-30T22:08:51.869Z,102408.09
2022-11-30T22:11:24.481Z,102405.28
2022-11-30T22:13:57.187Z,102414.00
2022-11-30T22:16:35.644Z,102413.88
2022-11-30T22:19:08.865Z,102421.13
2022-11-30T22:21:46.798Z,102414.19
2022-11-30T22:24:24.815Z,102422.22
2022-11-30T22:26:57.452Z,102425.69
2022-11-30T22:29:30.101Z,102417.66
2022-11-30T22:32:02.658Z,102426.09
2022-11-30T22:34:35.457Z,102419.75
2022-11-30T22:37:08.104Z,102425.00
2022-11-30T22:39:40.770Z,102433.44
2022-11-30T22:42:13.381Z,102419.97
2022-11-30T22:44:46.022Z,102417.97
2022-11-30T22:47:18.581Z,102421.75
2022-11-30T22:49:51.676Z,102415.41
2022-11-30T22:52:42.228Z,102425.09
2022-11-30T22:55:17.398Z,102423.06
2022-11-30T22:57:50.215Z,102436.78
2022-11-30T23:00:24.269Z,102436.00
2022-11-30T23:02:56.958Z,102430.00
2022-11-30T23:05:29.762Z,102427.25
2022-11-30T23:08:05.664Z,102423.91
2022-11-30T23:10:38.312Z,102426.56
2022-11-30T23:13:10.892Z,102423.69
2022-11-30T23:15:43.482Z,102429.81
2022-11-30T23:18:16.350Z,102428.63
2022-11-30T23:20:50.267Z,102425.22
2022-11-30T23:23:26.104Z,102428.91
2022-11-30T23:26:12.626Z,102414.94
2022-11-30T23:28:48.166Z,102420.75
2022-11-30T23:31:33.853Z,102423.25
2022-11-30T23:34:13.459Z,102416.88
2022-11-30T23:36:47.108Z,102423.69
2022-11-30T23:39:20.806Z,102419.06
2022-11-30T23:41:53.495Z,102420.69
2022-11-30T23:44:25.985Z,102419.66
2022-11-30T23:47:00.360Z,102420.19
2022-11-30T23:49:34.383Z,102428.47
2022-11-30T23:52:07.010Z,102429.34
2022-11-30T23:54:39.721Z,102425.16
2022-11-30T23:57:13.079Z,102423.72
2022-11-30T23:59:46.173Z,102419.88
